createdAt,value
2018-08-17T00:00:51.465Z,602.8
2018-08-17T00:01:53.660Z,602.6
2018-08-17T00:02:56.107Z,602.7
2018-08-17T00:03:58.550Z,602.6
2018-08-17T00:05:00.457Z,602.9
2018-08-17T00:06:02.898Z,602.9
2018-08-17T00:07:05.337Z,603.1
2018-08-17T00:08:07.791Z,603.2
2018-08-17T00:09:10.219Z,603.5
2018-08-17T00:10:12.675Z,603.6
2018-08-17T00:11:14.564Z,603.1
2018-08-17T00:12:17.009Z,603.6
2018-08-17T00:13:19.450Z,603.5
2018-08-17T00:14:21.365Z,603.3
2018-08-17T00:15:23.535Z,603.4
2018-08-17T00:16:25.981Z,603.5
2018-08-17T00:17:28.165Z,603.8
2018-08-17T00:18:44.734Z,603.3
2018-08-17T00:19:46.900Z,603.5
2018-08-17T00:20:48.812Z,603.9
2018-08-17T00:21:51.260Z,603.9
2018-08-17T00:22:53.695Z,603.9
2018-08-17T00:23:56.150Z,604
2018-08-17T00:24:58.317Z,604
2018-08-17T00:26:00.770Z,604.5
2018-08-17T00:27:02.944Z,604
2018-08-17T00:28:05.124Z,604.3
2018-08-17T00:29:07.033Z,604.1
2018-08-17T00:30:09.216Z,603.9
2018-08-17T00:31:11.089Z,604.2
2018-08-17T00:32:13.557Z,604.5
2018-08-17T00:33:15.731Z,604.5
2018-08-17T00:34:17.895Z,604.6
2018-08-17T00:35:20.057Z,604.7
2018-08-17T00:36:22.506Z,605.2
2018-08-17T00:37:24.402Z,605.2
2018-08-17T00:38:26.587Z,605.2
2018-08-17T00:39:28.225Z,605.1
2018-08-17T00:40:30.120Z,604.9
2018-08-17T00:41:32.567Z,605.1
2018-08-17T00:42:34.477Z,605.4
2018-08-17T00:43:36.648Z,605.5
2018-08-17T00:44:39.100Z,605.4
2018-08-17T00:45:41.539Z,605.5
2018-08-17T00:46:43.985Z,605.6
2018-08-17T00:47:46.423Z,605.5
2018-08-17T00:48:48.880Z,605.6
2018-08-17T00:49:51.324Z,605.7
2018-08-17T00:50:53.774Z,605.7
2018-08-17T00:51:56.254Z,605.3
2018-08-17T00:52:58.406Z,605.2
2018-08-17T00:54:00.586Z,605.8
2018-08-17T00:55:02.759Z,605.6
2018-08-17T00:56:04.905Z,605.6
2018-08-17T00:57:07.385Z,605.5
2018-08-17T00:58:09.545Z,605
2018-08-17T00:59:11.450Z,605.4
2018-08-17T01:00:13.618Z,605.7
2018-08-17T01:01:15.515Z,605.5
2018-08-17T01:02:17.706Z,605.2
2018-08-17T01:03:20.157Z,605.2
2018-08-17T01:04:22.604Z,605.8
2018-08-17T01:05:25.051Z,605.6
2018-08-17T01:06:27.501Z,604.9
2018-08-17T01:07:29.674Z,605.6
2018-08-17T01:08:32.134Z,605.3
2018-08-17T01:09:34.313Z,605.1
2018-08-17T01:10:36.762Z,605.5
2018-08-17T01:11:38.935Z,605.4
2018-08-17T01:12:41.106Z,605.4
2018-08-17T01:13:43.277Z,605.8
2018-08-17T01:14:45.462Z,605.5
2018-08-17T01:15:47.935Z,605.5
2018-08-17T01:16:50.386Z,605.6
2018-08-17T01:17:52.286Z,605.5
2018-08-17T01:18:54.730Z,605.8
2018-08-17T01:19:57.180Z,605.9
2018-08-17T01:20:59.362Z,605.7
2018-08-17T01:22:01.809Z,606
2018-08-17T01:23:03.985Z,605.8
2018-08-17T01:24:06.434Z,606.2
2018-08-17T01:25:08.875Z,606.2
2018-08-17T01:26:11.321Z,606.1
2018-08-17T01:27:13.772Z,606.5
2018-08-17T01:28:15.940Z,606
2018-08-17T01:29:18.389Z,606.4
2018-08-17T01:30:20.571Z,606.4
2018-08-17T01:31:23.015Z,606.5
2018-08-17T01:32:24.640Z,606.7
2018-08-17T01:33:27.084Z,606.4
2018-08-17T01:34:29.533Z,606.6
2018-08-17T01:35:31.454Z,606.4
2018-08-17T01:36:33.334Z,606.4
2018-08-17T01:37:35.500Z,606.6
2018-08-17T01:38:37.502Z,606.6
2018-08-17T01:39:39.947Z,606.6
2018-08-17T01:40:42.387Z,606.6
2018-08-17T01:41:44.848Z,606.7
2018-08-17T01:42:47.044Z,606.8
2018-08-17T01:43:49.498Z,606.8
2018-08-17T01:44:51.676Z,606.8
2018-08-17T01:45:53.568Z,606.8
2018-08-17T01:46:55.750Z,606.7
2018-08-17T01:47:58.220Z,606.8
2018-08-17T01:49:00.661Z,606.9
2018-08-17T01:50:03.117Z,606.8
2018-08-17T01:51:05.594Z,606.8
2018-08-17T01:52:07.776Z,607.1
2018-08-17T01:53:10.245Z,606.9
2018-08-17T01:54:12.416Z,606.7
2018-08-17T01:55:14.896Z,606.7
2018-08-17T01:56:17.344Z,606.4
2018-08-17T01:57:19.240Z,606.5
2018-08-17T01:58:21.682Z,606.7
2018-08-17T01:59:23.846Z,606.8
2018-08-17T02:00:26.089Z,606.3
2018-08-17T02:01:28.269Z,606.4
2018-08-17T02:02:30.715Z,606.2
2018-08-17T02:03:32.889Z,606.2
2018-08-17T02:04:35.077Z,606.4
2018-08-17T02:05:37.239Z,606.3
2018-08-17T02:06:39.687Z,606.3
2018-08-17T02:07:41.875Z,606.2
2018-08-17T02:08:44.311Z,606.3
2018-08-17T02:09:46.776Z,606.2
2018-08-17T02:10:49.233Z,606.4
2018-08-17T02:11:51.110Z,606.7
2018-08-17T02:12:53.260Z,606.3
2018-08-17T02:13:55.696Z,606.5
2018-08-17T02:14:58.147Z,606.6
2018-08-17T02:15:59.766Z,606.7
2018-08-17T02:17:02.218Z,606.7
2018-08-17T02:18:04.690Z,606.6
2018-08-17T02:19:06.873Z,606.8
2018-08-17T02:20:09.321Z,607
2018-08-17T02:21:11.501Z,607.1
2018-08-17T02:22:13.396Z,606.6
2018-08-17T02:23:15.570Z,606.8
2018-08-17T02:24:17.816Z,606.8
2018-08-17T02:25:19.987Z,607
2018-08-17T02:26:22.435Z,606.3
2018-08-17T02:27:24.351Z,606
2018-08-17T02:28:26.515Z,606.2
2018-08-17T02:29:28.675Z,606.4
2018-08-17T02:30:31.124Z,606.1
2018-08-17T02:31:33.295Z,606.3
2018-08-17T02:32:35.747Z,606.4
2018-08-17T02:33:37.919Z,606.4
2018-08-17T02:34:40.075Z,606.5
2018-08-17T02:35:42.520Z,606.7
2018-08-17T02:36:44.979Z,606.6
2018-08-17T02:37:46.889Z,606.7
2018-08-17T02:38:49.369Z,606.4
2018-08-17T02:39:51.810Z,606.8
2018-08-17T02:40:53.990Z,607
2018-08-17T02:41:56.155Z,606.7
2018-08-17T02:42:58.600Z,606.4
2018-08-17T02:44:00.779Z,606.7
2018-08-17T02:45:02.690Z,606.7
2018-08-17T02:46:04.582Z,607
2018-08-17T02:47:07.027Z,606.9
2018-08-17T02:48:09.473Z,607.3
2018-08-17T02:49:11.662Z,607.3
2018-08-17T02:50:14.099Z,607.4
2018-08-17T02:51:15.979Z,607.1
2018-08-17T02:52:18.169Z,607.1
2018-08-17T02:53:20.342Z,607.2
2018-08-17T02:54:22.525Z,607.5
2018-08-17T02:55:24.972Z,607.6
2018-08-17T02:56:26.865Z,607.5
2018-08-17T02:57:29.038Z,607.4
2018-08-17T02:58:31.219Z,607.5
2018-08-17T02:59:34.099Z,607.4
2018-08-17T03:00:36.270Z,607.5
2018-08-17T03:01:37.870Z,607.3
2018-08-17T03:02:39.778Z,607.4
2018-08-17T03:03:41.973Z,607
2018-08-17T03:04:44.145Z,607.4
2018-08-17T03:05:46.039Z,607.3
2018-08-17T03:06:48.200Z,607.1
2018-08-17T03:07:50.355Z,607.1
2018-08-17T03:08:51.983Z,606.9
2018-08-17T03:09:54.428Z,607.1
2018-08-17T03:10:56.596Z,607.1
2018-08-17T03:11:58.780Z,607.4
2018-08-17T03:13:00.938Z,607.3
2018-08-17T03:14:02.859Z,607
2018-08-17T03:15:05.037Z,607.4
2018-08-17T03:16:07.215Z,607.2
2018-08-17T03:17:08.866Z,607.2
2018-08-17T03:18:11.010Z,606.9
2018-08-17T03:19:13.452Z,606.9
2018-08-17T03:20:15.653Z,607.1
2018-08-17T03:21:18.089Z,606.8
2018-08-17T03:22:20.550Z,607.1
2018-08-17T03:23:22.459Z,606.9
2018-08-17T03:24:24.915Z,606.9
2018-08-17T03:25:27.378Z,606.6
2018-08-17T03:26:29.828Z,606.5
2018-08-17T03:27:31.995Z,606.3
2018-08-17T03:28:33.879Z,606.2
2018-08-17T03:29:35.241Z,606.5
2018-08-17T03:30:37.716Z,606.4
2018-08-17T03:31:39.346Z,606.8
2018-08-17T03:32:41.796Z,606.2
2018-08-17T03:33:43.986Z,606.6
2018-08-17T03:34:46.157Z,606.5
2018-08-17T03:35:48.318Z,606.6
2018-08-17T03:36:50.805Z,606.4
2018-08-17T03:37:52.700Z,606.2
2018-08-17T03:38:54.599Z,606.3
2018-08-17T03:39:57.048Z,606
2018-08-17T03:40:59.489Z,606.3
2018-08-17T03:42:01.661Z,605.9
2018-08-17T03:43:04.108Z,606
2018-08-17T03:44:06.277Z,606
2018-08-17T03:45:08.716Z,605.9
2018-08-17T03:46:10.855Z,605.7
2018-08-17T03:47:13.303Z,605.7
2018-08-17T03:48:15.738Z,605.7
2018-08-17T03:49:18.189Z,605.9
2018-08-17T03:50:20.359Z,606.1
2018-08-17T03:51:22.800Z,606.2
2018-08-17T03:52:24.959Z,606.2
2018-08-17T03:53:27.128Z,606.4
2018-08-17T03:54:29.307Z,606.2
2018-08-17T03:55:31.208Z,606.3
2018-08-17T03:56:33.121Z,606.1
2018-08-17T03:57:35.048Z,606
2018-08-17T03:58:37.494Z,605.8
2018-08-17T03:59:40.321Z,605.9
2018-08-17T04:00:42.800Z,606.2
2018-08-17T04:01:45.039Z,605.9
2018-08-17T04:02:47.501Z,606.1
2018-08-17T04:03:49.686Z,606
2018-08-17T04:04:52.146Z,605.9
2018-08-17T04:05:54.325Z,606.2
2018-08-17T04:06:56.787Z,605.9
2018-08-17T04:07:59.225Z,606.1
2018-08-17T04:09:01.691Z,605.9
2018-08-17T04:10:03.564Z,606.2
2018-08-17T04:11:06.013Z,605.7
2018-08-17T04:12:07.642Z,605.9
2018-08-17T04:13:10.091Z,606.1
2018-08-17T04:14:12.536Z,606.1
2018-08-17T04:15:14.979Z,606
2018-08-17T04:16:16.596Z,606
2018-08-17T04:17:18.749Z,605.9
2018-08-17T04:18:21.201Z,605.9
2018-08-17T04:19:23.112Z,605.9
2018-08-17T04:20:25.561Z,606.2
2018-08-17T04:21:27.736Z,605.7
2018-08-17T04:22:29.650Z,605.7
2018-08-17T04:23:31.877Z,605.5
2018-08-17T04:24:34.306Z,604.9
2018-08-17T04:25:36.757Z,604.6
2018-08-17T04:26:39.189Z,604.8
2018-08-17T04:27:41.627Z,604.5
2018-08-17T04:28:43.539Z,604.5
2018-08-17T04:29:45.709Z,604.4
2018-08-17T04:30:47.888Z,604.4
2018-08-17T04:31:50.340Z,604.3
2018-08-17T04:32:52.485Z,604
2018-08-17T04:33:54.926Z,604.3
2018-08-17T04:34:57.374Z,604.1
2018-08-17T04:35:59.832Z,603.7
2018-08-17T04:37:01.720Z,603.5
2018-08-17T04:38:04.175Z,603.5
2018-08-17T04:39:06.679Z,603.6
2018-08-17T04:40:08.856Z,603.6
2018-08-17T04:41:11.007Z,603.3
2018-08-17T04:42:13.185Z,603.5
2018-08-17T04:43:15.634Z,603.3
2018-08-17T04:44:17.804Z,602.9
2018-08-17T04:45:19.977Z,602.9
2018-08-17T04:46:22.153Z,603.1
2018-08-17T04:47:24.326Z,603
2018-08-17T04:48:26.488Z,602.8
2018-08-17T04:49:28.946Z,602.6
2018-08-17T04:50:31.395Z,602.4
2018-08-17T04:51:33.582Z,602.4
2018-08-17T04:52:35.738Z,602.5
2018-08-17T04:53:37.619Z,602.2
2018-08-17T04:54:39.804Z,602.3
2018-08-17T04:55:42.246Z,602.1
2018-08-17T04:56:44.125Z,601.9
2018-08-17T04:57:46.005Z,602
2018-08-17T04:58:48.470Z,601.7
2018-08-17T04:59:50.927Z,601.9
2018-08-17T05:00:53.378Z,601.8
2018-08-17T05:01:55.555Z,601.6
2018-08-17T05:02:58.005Z,601.3
2018-08-17T05:03:59.929Z,601.8
2018-08-17T05:05:02.116Z,601.9
2018-08-17T05:06:04.287Z,602.1
2018-08-17T05:07:06.737Z,601.5
2018-08-17T05:08:08.912Z,601.5
2018-08-17T05:09:11.065Z,601.7
2018-08-17T05:10:13.238Z,601.7
2018-08-17T05:11:15.405Z,601.8
2018-08-17T05:12:17.577Z,601.7
2018-08-17T05:13:20.025Z,601.7
2018-08-17T05:14:21.643Z,601.6
2018-08-17T05:15:23.821Z,601.7
2018-08-17T05:16:26.283Z,601.6
2018-08-17T05:17:28.175Z,601.6
2018-08-17T05:18:30.316Z,601.5
2018-08-17T05:19:32.484Z,601.3
2018-08-17T05:20:34.931Z,601.5
2018-08-17T05:21:37.761Z,601.4
2018-08-17T05:22:39.988Z,601.3
2018-08-17T05:23:41.864Z,601.3
2018-08-17T05:24:44.038Z,601.2
2018-08-17T05:25:46.208Z,601.4
2018-08-17T05:26:48.667Z,601.3
2018-08-17T05:27:50.843Z,601.2
2018-08-17T05:28:53.015Z,601
2018-08-17T05:29:55.457Z,601.2
2018-08-17T05:30:57.910Z,600.6
2018-08-17T05:31:59.816Z,600.8
2018-08-17T05:33:02.008Z,600.8
2018-08-17T05:34:04.182Z,600.9
2018-08-17T05:35:06.621Z,600.7
2018-08-17T05:36:09.231Z,600.6
2018-08-17T05:37:11.419Z,600.7
2018-08-17T05:38:13.872Z,600.5
2018-08-17T05:39:16.017Z,600.1
2018-08-17T05:40:18.177Z,600.3
2018-08-17T05:41:20.628Z,600.4
2018-08-17T05:42:23.085Z,600.6
2018-08-17T05:43:25.524Z,600.1
2018-08-17T05:44:27.698Z,600.6
2018-08-17T05:45:29.882Z,600.6
2018-08-17T05:46:32.341Z,600.6
2018-08-17T05:47:34.791Z,600.6
2018-08-17T05:48:36.969Z,600.5
2018-08-17T05:49:39.419Z,600.2
2018-08-17T05:50:41.320Z,600.7
2018-08-17T05:51:43.498Z,600.1
2018-08-17T05:52:45.401Z,600
2018-08-17T05:53:47.567Z,600
2018-08-17T05:54:50.018Z,599.9
2018-08-17T05:55:52.469Z,600.1
2018-08-17T05:56:54.640Z,600
2018-08-17T05:57:56.823Z,599.8
2018-08-17T05:58:59.271Z,599.8
2018-08-17T06:00:01.470Z,599.5
2018-08-17T06:01:03.379Z,599.8
2018-08-17T06:02:05.297Z,599.6
2018-08-17T06:03:07.741Z,599.4
2018-08-17T06:04:10.180Z,599.6
2018-08-17T06:05:12.360Z,599.3
2018-08-17T06:06:14.806Z,599.6
2018-08-17T06:07:16.999Z,599.5
2018-08-17T06:08:18.899Z,599.5
2018-08-17T06:09:21.341Z,599.4
2018-08-17T06:10:23.517Z,599.2
2018-08-17T06:11:26.577Z,599.3
2018-08-17T06:12:28.862Z,599.3
2018-08-17T06:13:31.042Z,599.2
2018-08-17T06:14:33.221Z,599.1
2018-08-17T06:15:35.134Z,599.3
2018-08-17T06:16:37.295Z,599.1
2018-08-17T06:17:39.760Z,599
2018-08-17T06:18:41.670Z,598.9
2018-08-17T06:19:44.140Z,598.7
2018-08-17T06:20:46.607Z,598.5
2018-08-17T06:21:49.086Z,598.5
2018-08-17T06:22:51.277Z,598.3
2018-08-17T06:23:53.451Z,598.5
2018-08-17T06:24:55.892Z,598.3
2018-08-17T06:25:58.048Z,598.3
2018-08-17T06:27:00.497Z,598.6
2018-08-17T06:28:02.949Z,598.4
2018-08-17T06:29:05.388Z,598.1
2018-08-17T06:30:07.835Z,598.5
2018-08-17T06:31:09.711Z,598.3
2018-08-17T06:32:11.895Z,598.5
2018-08-17T06:33:14.361Z,598.2
2018-08-17T06:34:16.813Z,598.2
2018-08-17T06:35:19.275Z,598.2
2018-08-17T06:36:21.462Z,598.3
2018-08-17T06:37:24.057Z,598.4
2018-08-17T06:38:26.526Z,598.6
2018-08-17T06:39:28.979Z,598.2
2018-08-17T06:40:31.152Z,598.5
2018-08-17T06:41:33.613Z,598.3
2018-08-17T06:42:36.080Z,598.6
2018-08-17T06:43:37.997Z,598.1
2018-08-17T06:44:40.440Z,598.5
2018-08-17T06:45:42.353Z,598.6
2018-08-17T06:46:44.811Z,598.8
2018-08-17T06:47:47.267Z,598.3
2018-08-17T06:48:49.710Z,598.8
2018-08-17T06:49:52.167Z,598.8
2018-08-17T06:50:55.496Z,598.8
2018-08-17T06:51:58.040Z,598.9
2018-08-17T06:53:00.475Z,598.8
2018-08-17T06:54:02.656Z,598.8
2018-08-17T06:55:05.116Z,599
2018-08-17T06:56:07.295Z,598.9
2018-08-17T06:57:09.659Z,599
2018-08-17T06:58:11.842Z,598.8
2018-08-17T06:59:14.026Z,598.7
2018-08-17T07:00:15.924Z,598.7
2018-08-17T07:01:18.163Z,598.6
2018-08-17T07:02:20.655Z,598.4
2018-08-17T07:03:22.773Z,598.1
2018-08-17T07:04:25.223Z,597.9
2018-08-17T07:05:27.697Z,598
2018-08-17T07:06:30.132Z,597.9
2018-08-17T07:07:32.334Z,598.3
2018-08-17T07:08:34.623Z,598.4
2018-08-17T07:09:37.799Z,598
2018-08-17T07:10:39.904Z,598.3
2018-08-17T07:11:42.088Z,597.7
2018-08-17T07:12:44.577Z,598.1
2018-08-17T07:13:47.020Z,598
2018-08-17T07:14:49.472Z,597.8
2018-08-17T07:15:51.656Z,598.1
2018-08-17T07:16:54.119Z,597.9
2018-08-17T07:17:56.586Z,598.1
2018-08-17T07:18:59.040Z,597.9
2018-08-17T07:20:01.479Z,597.9
2018-08-17T07:21:03.656Z,597.6
2018-08-17T07:22:06.103Z,597.8
2018-08-17T07:23:07.716Z,597.8
2018-08-17T07:24:09.589Z,597.8
2018-08-17T07:25:11.765Z,597.5
2018-08-17T07:26:14.225Z,597.6
2018-08-17T07:27:16.106Z,597.5
2018-08-17T07:28:18.893Z,597.5
2018-08-17T07:29:21.089Z,597.4
2018-08-17T07:30:23.538Z,597.5
2018-08-17T07:31:25.979Z,597.5
2018-08-17T07:32:28.431Z,597.8
2018-08-17T07:33:30.614Z,597.4
2018-08-17T07:34:32.795Z,597.4
2018-08-17T07:35:35.114Z,597.6
2018-08-17T07:36:37.306Z,597.1
2018-08-17T07:37:39.474Z,597.2
2018-08-17T07:38:41.649Z,597.3
2018-08-17T07:39:43.833Z,597.1
2018-08-17T07:40:46.301Z,597.2
2018-08-17T07:41:48.581Z,597.2
2018-08-17T07:42:50.770Z,597.2
2018-08-17T07:43:53.218Z,597.1
2018-08-17T07:44:55.669Z,597
2018-08-17T07:45:57.821Z,597.3
2018-08-17T07:47:00.270Z,597
2018-08-17T07:48:02.565Z,596.8
2018-08-17T07:49:04.829Z,596.8
2018-08-17T07:50:07.286Z,596.8
2018-08-17T07:51:09.466Z,596.7
2018-08-17T07:52:11.086Z,596.6
2018-08-17T07:53:13.243Z,596.4
2018-08-17T07:54:15.167Z,596.4
2018-08-17T07:55:17.607Z,596.4
2018-08-17T07:56:19.783Z,596.4
2018-08-17T07:57:21.971Z,596.5
2018-08-17T07:58:24.151Z,596.5
2018-08-17T07:59:26.048Z,596.5
2018-08-17T08:00:28.499Z,595.9
2018-08-17T08:01:30.680Z,596.1
2018-08-17T08:02:33.146Z,596.1
2018-08-17T08:03:35.601Z,596.3
2018-08-17T08:04:38.052Z,596.3
2018-08-17T08:05:40.236Z,596.5
2018-08-17T08:06:42.679Z,596.1
2018-08-17T08:07:44.850Z,596.2
2018-08-17T08:08:47.285Z,595.7
2018-08-17T08:09:49.167Z,595.8
2018-08-17T08:10:51.059Z,596.1
2018-08-17T08:11:53.237Z,596.1
2018-08-17T08:12:55.696Z,595.9
2018-08-17T08:13:58.144Z,595.6
2018-08-17T08:15:00.302Z,595.6
2018-08-17T08:16:02.763Z,595.7
2018-08-17T08:17:04.670Z,595.9
2018-08-17T08:18:06.557Z,595.8
2018-08-17T08:19:08.445Z,595.5
2018-08-17T08:20:10.723Z,595.2
2018-08-17T08:21:13.168Z,595.6
2018-08-17T08:22:15.616Z,595.5
2018-08-17T08:23:18.077Z,595.4
2018-08-17T08:24:20.534Z,595.9
2018-08-17T08:25:22.736Z,595.6
2018-08-17T08:26:25.204Z,595.4
2018-08-17T08:27:27.656Z,595.5
2018-08-17T08:28:29.543Z,595.2
2018-08-17T08:29:31.988Z,595.4
2018-08-17T08:30:34.216Z,595.1
2018-08-17T08:31:36.654Z,595.2
2018-08-17T08:32:39.167Z,595
2018-08-17T08:33:41.358Z,595.1
2018-08-17T08:34:43.265Z,595.3
2018-08-17T08:35:45.147Z,595.3
2018-08-17T08:36:47.603Z,595.2
2018-08-17T08:37:50.059Z,594.8
2018-08-17T08:38:52.507Z,594.9
2018-08-17T08:39:54.549Z,595
2018-08-17T08:40:57.084Z,594.7
2018-08-17T08:41:59.547Z,594.6
2018-08-17T08:43:01.711Z,594.5
2018-08-17T08:44:03.874Z,594.3
2018-08-17T08:45:06.065Z,594.2
2018-08-17T08:46:08.261Z,594
2018-08-17T08:47:10.707Z,593.9
2018-08-17T08:48:12.850Z,594
2018-08-17T08:49:15.310Z,593.5
2018-08-17T08:50:17.773Z,594.2
2018-08-17T08:51:20.240Z,593.8
2018-08-17T08:52:22.700Z,594
2018-08-17T08:53:25.146Z,593.9
2018-08-17T08:54:27.307Z,594.1
2018-08-17T08:55:29.246Z,593.7
2018-08-17T08:56:31.705Z,593.9
2018-08-17T08:57:33.878Z,593.9
2018-08-17T08:58:36.038Z,593.5
2018-08-17T08:59:38.498Z,593.8
2018-08-17T09:00:40.700Z,594.4
2018-08-17T09:01:43.482Z,593.7
2018-08-17T09:02:45.616Z,594.1
2018-08-17T09:03:47.553Z,594.4
2018-08-17T09:04:49.995Z,594.3
2018-08-17T09:05:52.454Z,594
2018-08-17T09:06:54.642Z,594.1
2018-08-17T09:07:56.539Z,594.3
2018-08-17T09:08:58.993Z,594.4
2018-08-17T09:10:01.216Z,594
2018-08-17T09:11:03.672Z,593.9
2018-08-17T09:12:06.146Z,593.8
2018-08-17T09:13:08.052Z,593.9
2018-08-17T09:14:09.704Z,593.8
2018-08-17T09:15:12.146Z,594
2018-08-17T09:16:14.337Z,594
2018-08-17T09:17:16.778Z,593.7
2018-08-17T09:18:18.986Z,593.9
2018-08-17T09:19:20.882Z,593.6
2018-08-17T09:20:24.026Z,594
2018-08-17T09:21:26.089Z,594.1
2018-08-17T09:22:28.603Z,594.3
2018-08-17T09:23:31.056Z,594.1
2018-08-17T09:24:33.243Z,594.5
2018-08-17T09:25:35.409Z,594.3
2018-08-17T09:26:37.587Z,594
2018-08-17T09:27:39.815Z,594.2
2018-08-17T09:28:41.983Z,594
2018-08-17T09:29:44.191Z,594.5
2018-08-17T09:30:46.536Z,594
2018-08-17T09:31:48.986Z,594.4
2018-08-17T09:32:50.336Z,594.3
2018-08-17T09:33:52.781Z,594.3
2018-08-17T09:34:55.223Z,594.2
2018-08-17T09:35:57.770Z,594.2
2018-08-17T09:37:00.214Z,594.5
2018-08-17T09:38:02.417Z,594.5
2018-08-17T09:39:04.583Z,594.5
2018-08-17T09:40:06.783Z,594.6
2018-08-17T09:41:08.965Z,594.5
2018-08-17T09:42:11.246Z,594.4
2018-08-17T09:43:13.557Z,594.5
2018-08-17T09:44:15.756Z,594.8
2018-08-17T09:45:18.200Z,594.9
2018-08-17T09:46:20.378Z,595.1
2018-08-17T09:47:22.825Z,595.1
2018-08-17T09:48:24.705Z,595.2
2018-08-17T09:49:26.874Z,595.4
2018-08-17T09:50:29.066Z,595
2018-08-17T09:51:31.705Z,595.3
2018-08-17T09:52:34.163Z,595.2
2018-08-17T09:53:36.075Z,595.4
2018-08-17T09:54:38.520Z,594.9
2018-08-17T09:55:40.684Z,595.3
2018-08-17T09:56:43.179Z,595.3
2018-08-17T09:57:46.146Z,595.2
2018-08-17T09:58:48.352Z,595.2
2018-08-17T09:59:50.497Z,594.5
2018-08-17T10:00:52.959Z,594.6
2018-08-17T10:01:55.411Z,594.6
2018-08-17T10:02:57.859Z,594.8
2018-08-17T10:04:00.521Z,594.8
2018-08-17T10:05:02.436Z,595.1
2018-08-17T10:06:04.584Z,594.9
2018-08-17T10:07:07.042Z,595.6
2018-08-17T10:08:08.925Z,595.1
2018-08-17T10:09:11.367Z,595.3
2018-08-17T10:10:13.541Z,595.6
2018-08-17T10:11:15.466Z,595.4
2018-08-17T10:12:17.066Z,595.4
2018-08-17T10:13:19.511Z,595.2
2018-08-17T10:14:21.665Z,594.8
2018-08-17T10:15:23.847Z,595.3
2018-08-17T10:16:26.299Z,595.3
2018-08-17T10:17:28.747Z,595.3
2018-08-17T10:18:30.923Z,595.2
2018-08-17T10:19:33.102Z,595.1
2018-08-17T10:20:35.274Z,595.3
2018-08-17T10:21:40.315Z,595.1
2018-08-17T10:22:43.125Z,595.2
2018-08-17T10:23:45.311Z,594.9
2018-08-17T10:24:47.514Z,595.1
2018-08-17T10:25:49.705Z,594.9
2018-08-17T10:26:51.850Z,595.4
2018-08-17T10:27:54.307Z,595.1
2018-08-17T10:28:56.772Z,595.3
2018-08-17T10:29:59.207Z,595.4
2018-08-17T10:31:01.385Z,595.4
2018-08-17T10:32:03.836Z,595.3
2018-08-17T10:33:05.997Z,595.3
2018-08-17T10:34:09.210Z,595.2
2018-08-17T10:35:11.087Z,594.9
2018-08-17T10:36:13.258Z,594.9
2018-08-17T10:37:15.707Z,595.1
2018-08-17T10:38:18.165Z,595.3
2018-08-17T10:39:20.346Z,595.1
2018-08-17T10:40:22.534Z,595.5
2018-08-17T10:41:24.449Z,595.8
2018-08-17T10:42:26.899Z,595.7
2018-08-17T10:43:29.337Z,595.8
2018-08-17T10:44:31.786Z,596
2018-08-17T10:45:34.231Z,595.8
2018-08-17T10:46:36.195Z,595.8
2018-08-17T10:47:38.644Z,595.8
2018-08-17T10:48:40.791Z,595.9
2018-08-17T10:49:43.233Z,595.5
2018-08-17T10:50:45.679Z,595.7
2018-08-17T10:51:48.125Z,595.3
2018-08-17T10:52:50.587Z,595.3
2018-08-17T10:53:52.730Z,595.5
2018-08-17T10:54:54.915Z,594.9
2018-08-17T10:55:57.376Z,595.4
2018-08-17T10:56:59.592Z,595
2018-08-17T10:58:01.819Z,595.7
2018-08-17T10:59:04.264Z,595.1
2018-08-17T11:00:06.717Z,594.9
2018-08-17T11:01:08.909Z,595.1
2018-08-17T11:02:11.360Z,594.8
2018-08-17T11:03:13.807Z,595.3
2018-08-17T11:04:16.246Z,595.2
2018-08-17T11:05:18.715Z,595
2018-08-17T11:06:21.156Z,595
2018-08-17T11:07:23.336Z,595.3
2018-08-17T11:08:25.790Z,595.4
2018-08-17T11:09:27.959Z,595.4
2018-08-17T11:10:29.875Z,595.1
2018-08-17T11:11:32.327Z,594.5
2018-08-17T11:12:34.772Z,595.1
2018-08-17T11:13:37.198Z,595.4
2018-08-17T11:14:39.196Z,595.1
2018-08-17T11:15:41.484Z,595.4
2018-08-17T11:16:43.285Z,594.7
2018-08-17T11:17:45.742Z,594.9
2018-08-17T11:18:48.193Z,595.1
2018-08-17T11:19:50.382Z,595.1
2018-08-17T11:20:52.561Z,595.1
2018-08-17T11:21:54.997Z,595.3
2018-08-17T11:22:58.001Z,595.1
2018-08-17T11:24:00.475Z,595.5
2018-08-17T11:25:02.927Z,595.1
2018-08-17T11:26:05.368Z,595.1
2018-08-17T11:27:07.524Z,595.1
2018-08-17T11:28:09.982Z,595.1
2018-08-17T11:29:12.161Z,595.2
2018-08-17T11:30:14.323Z,595.3
2018-08-17T11:31:16.219Z,595.3
2018-08-17T11:32:18.666Z,595.3
2018-08-17T11:33:20.827Z,595.4
2018-08-17T11:34:23.294Z,595.3
2018-08-17T11:35:25.818Z,595.5
2018-08-17T11:36:28.267Z,595.3
2018-08-17T11:37:30.704Z,595.1
2018-08-17T11:38:32.884Z,595.6
2018-08-17T11:39:34.790Z,595.5
2018-08-17T11:40:36.710Z,595.4
2018-08-17T11:41:38.622Z,595.8
2018-08-17T11:42:40.794Z,595.6
2018-08-17T11:43:42.962Z,595.9
2018-08-17T11:44:45.157Z,595.7
2018-08-17T11:45:47.602Z,596
2018-08-17T11:46:49.478Z,595.9
2018-08-17T11:47:51.660Z,596.3
2018-08-17T11:48:53.855Z,596.6
2018-08-17T11:49:56.041Z,596.2
2018-08-17T11:50:58.205Z,595.9
2018-08-17T11:52:00.361Z,596
2018-08-17T11:53:02.807Z,596.4
2018-08-17T11:54:05.008Z,596.2
2018-08-17T11:55:07.195Z,596.1
2018-08-17T11:56:09.417Z,596.5
2018-08-17T11:57:11.865Z,596.1
2018-08-17T11:58:14.322Z,595.8
2018-08-17T11:59:15.950Z,596
2018-08-17T12:00:18.136Z,596
2018-08-17T12:01:20.318Z,596
2018-08-17T12:02:22.251Z,596.1
2018-08-17T12:03:24.457Z,596.2
2018-08-17T12:04:26.903Z,596.2
2018-08-17T12:05:28.792Z,595.9
2018-08-17T12:06:30.966Z,595.5
2018-08-17T12:07:33.416Z,596.2
2018-08-17T12:08:36.376Z,596.2
2018-08-17T12:09:38.558Z,596.3
2018-08-17T12:10:40.728Z,596.2
2018-08-17T12:11:43.174Z,596
2018-08-17T12:12:44.795Z,596.1
2018-08-17T12:13:46.669Z,595.8
2018-08-17T12:14:49.108Z,595.5
2018-08-17T12:15:51.546Z,596
2018-08-17T12:16:53.994Z,596.2
2018-08-17T12:17:55.610Z,596.4
2018-08-17T12:18:58.058Z,596.2
2018-08-17T12:19:59.686Z,595.8
2018-08-17T12:21:02.126Z,596.3
2018-08-17T12:22:04.295Z,595.7
2018-08-17T12:23:06.437Z,596.5
2018-08-17T12:24:08.439Z,596.3
2018-08-17T12:25:11.518Z,596.4
2018-08-17T12:26:13.707Z,596.5
2018-08-17T12:27:15.604Z,596.4
2018-08-17T12:28:17.777Z,596.7
2018-08-17T12:29:19.949Z,596.5
2018-08-17T12:30:21.829Z,596.5
2018-08-17T12:31:24.272Z,596.7
2018-08-17T12:32:26.726Z,596.4
2018-08-17T12:33:28.607Z,596.6
2018-08-17T12:34:30.796Z,596
2018-08-17T12:35:32.995Z,597.1
2018-08-17T12:36:35.176Z,597.1
2018-08-17T12:37:37.358Z,597.1
2018-08-17T12:38:39.815Z,596.9
2018-08-17T12:39:41.992Z,597.2
2018-08-17T12:40:44.180Z,597.3
2018-08-17T12:41:46.632Z,597.1
2018-08-17T12:42:48.807Z,597.7
2018-08-17T12:43:50.712Z,596.9
2018-08-17T12:44:53.161Z,597.1
2018-08-17T12:45:55.613Z,597.3
2018-08-17T12:46:57.800Z,597.5
2018-08-17T12:47:59.967Z,596.9
2018-08-17T12:49:02.412Z,598
2018-08-17T12:50:04.037Z,597.3
2018-08-17T12:51:06.492Z,597.2
2018-08-17T12:52:09.041Z,597.4
2018-08-17T12:53:11.207Z,597.7
2018-08-17T12:54:13.377Z,597.5
2018-08-17T12:55:15.568Z,597.7
2018-08-17T12:56:18.021Z,597.7
2018-08-17T12:57:20.460Z,597.6
2018-08-17T12:58:22.621Z,598.2
2018-08-17T12:59:25.054Z,597.7
2018-08-17T13:00:27.518Z,598.1
2018-08-17T13:01:29.981Z,597.7
2018-08-17T13:02:32.415Z,598
2018-08-17T13:03:34.876Z,597.8
2018-08-17T13:04:36.755Z,598.1
2018-08-17T13:05:38.930Z,598.4
2018-08-17T13:06:41.100Z,598.4
2018-08-17T13:07:43.553Z,598.2
2018-08-17T13:08:46.002Z,598.3
2018-08-17T13:09:48.179Z,598
2018-08-17T13:10:50.585Z,598.3
2018-08-17T13:11:52.741Z,598.5
2018-08-17T13:12:55.190Z,598.7
2018-08-17T13:13:57.363Z,598.6
2018-08-17T13:14:59.810Z,598.6
2018-08-17T13:16:01.728Z,598.6
2018-08-17T13:17:04.177Z,599.1
2018-08-17T13:18:06.631Z,598.5
2018-08-17T13:19:09.092Z,598.4
2018-08-17T13:20:11.297Z,598.6
2018-08-17T13:21:13.199Z,598.7
2018-08-17T13:22:15.361Z,598.3
2018-08-17T13:23:17.807Z,598.5
2018-08-17T13:24:19.985Z,599.1
2018-08-17T13:25:22.426Z,599.4
2018-08-17T13:26:24.348Z,599.3